This is the latest recevied weather packets stored in our database for station/object IW8ELN-10. If no packets are shown the sender has not sent any weather packets the latest 10 day(s).
| Time | Temp. | Humidity | Pressure | Rain* | Wind** | Luminosity | Snow |
|---|---|---|---|---|---|---|---|
| 1777977789 | -10° C | 63% | 954.2 hPa | - | - | - | - |
| 1777974182 | 14.44° C | 65% | 991.4 hPa | - | - | - | - |
| 1777970589 | 13.89° C | 66% | 991.2 hPa | - | - | - | - |
| 1777966982 | 13.33° C | 71% | 991.4 hPa | - | - | - | - |
| 1777963389 | 12.78° C | 71% | 991.4 hPa | - | - | - | - |
| 1777959789 | 12.78° C | 68% | 991.1 hPa | - | - | - | - |
| 1777956188 | 5° C | 65% | 979.3 hPa | - | - | - | - |
| 1777948988 | 13.33° C | 64% | 991 hPa | - | - | - | - |
| 1777945388 | 13.33° C | 63% | 991.6 hPa | - | - | - | - |
| 1777941788 | 13.33° C | 64% | 992.1 hPa | - | - | - | - |
| 1777938188 | 13.33° C | 64% | 992.2 hPa | - | - | - | - |
| 1777934588 | 13.89° C | 64% | 992.6 hPa | - | - | - | - |
| 1777930981 | 13.89° C | 64% | 992.8 hPa | - | - | - | - |
| 1777927381 | 14.44° C | 64% | 992.7 hPa | - | - | - | - |
| 1777923780 | 14.44° C | 65% | 992.4 hPa | - | - | - | - |
| 1777920180 | 15° C | 64% | 992 hPa | - | - | - | - |
| 1777916580 | 15° C | 58% | 996.2 hPa | - | - | - | - |
| 1777912980 | 15.56° C | 58% | 991.3 hPa | - | - | - | - |
| 1777909380 | 16.67° C | 55% | 991.2 hPa | - | - | - | - |
| 1777905787 | 17.22° C | 55% | 991.1 hPa | - | - | - | - |
| 1777902180 | 16.67° C | 60% | 991.5 hPa | - | - | - | - |
| 1777898580 | 9.44° C | 61% | 984.2 hPa | - | - | - | - |
| 1777894979 | 15.56° C | 64% | 992.5 hPa | - | - | - | - |
| 1777891379 | 15° C | 67% | 993.3 hPa | - | - | - | - |
| 1777887786 | 15° C | 67% | 993.9 hPa | - | - | - | - |
* Rain since midnight (hover to see other rain measurements)
** Current wind speed in m/s (hover to see current wind gust speed)